createdAt,value
2022-08-28T00:05:02.481Z,100.00
2022-08-28T00:12:05.248Z,100.00
2022-08-28T00:19:06.846Z,100.00
2022-08-28T00:26:08.458Z,100.00
2022-08-28T00:33:20.997Z,100.00
2022-08-28T00:40:30.459Z,100.00
2022-08-28T00:47:34.984Z,100.00
2022-08-28T00:54:37.803Z,100.00
2022-08-28T01:01:39.512Z,100.00
2022-08-28T01:08:41.692Z,100.00
2022-08-28T01:15:43.396Z,99.76
2022-08-28T01:22:58.981Z,99.20
2022-08-28T01:30:03.619Z,98.43
2022-08-28T01:37:05.463Z,95.80
2022-08-28T01:44:07.251Z,95.83
2022-08-28T01:51:09.455Z,95.80
2022-08-28T01:58:11.182Z,95.82
2022-08-28T02:05:12.828Z,95.84
2022-08-28T02:12:14.600Z,96.37
2022-08-28T02:19:16.234Z,96.95
2022-08-28T02:26:17.990Z,97.49
2022-08-28T02:33:19.628Z,97.88
2022-08-28T02:40:22.370Z,98.08
2022-08-28T02:47:24.075Z,99.29
2022-08-28T02:54:26.390Z,98.68
2022-08-28T03:01:28.054Z,98.53
2022-08-28T03:08:30.066Z,97.91
2022-08-28T03:15:31.707Z,97.84
2022-08-28T03:22:56.578Z,97.12
2022-08-28T03:29:59.200Z,96.24
2022-08-28T03:37:01.197Z,94.68
2022-08-28T03:44:03.339Z,94.33
2022-08-28T03:51:09.283Z,93.95
2022-08-28T03:58:11.093Z,93.05
2022-08-28T04:05:20.623Z,92.93
2022-08-28T04:12:22.257Z,93.39
2022-08-28T04:19:23.992Z,93.39
2022-08-28T04:26:26.426Z,93.04
2022-08-28T04:33:28.294Z,92.78
2022-08-28T04:40:30.095Z,93.04
2022-08-28T04:47:35.351Z,92.57
2022-08-28T04:54:36.991Z,92.85
2022-08-28T05:01:40.197Z,92.42
2022-08-28T05:08:42.158Z,92.28
2022-08-28T05:15:45.855Z,91.32
2022-08-28T05:22:47.712Z,91.29
2022-08-28T05:29:50.292Z,90.20
2022-08-28T05:36:51.893Z,89.77
2022-08-28T05:43:54.001Z,89.41
2022-08-28T05:50:57.754Z,88.56
2022-08-28T05:58:19.336Z,88.22
2022-08-28T06:05:21.040Z,87.76
2022-08-28T06:12:22.675Z,87.04
2022-08-28T06:19:25.126Z,86.11
2022-08-28T06:26:27.179Z,85.96
2022-08-28T06:33:28.831Z,85.93
2022-08-28T06:40:30.468Z,85.10
2022-08-28T06:47:32.131Z,84.48
2022-08-28T06:54:33.785Z,83.85
2022-08-28T07:01:36.476Z,83.45
2022-08-28T07:08:38.807Z,82.62
2022-08-28T07:15:41.924Z,81.90
2022-08-28T07:22:43.770Z,81.67
2022-08-28T07:29:45.392Z,79.50
2022-08-28T07:36:47.122Z,79.54
2022-08-28T07:44:07.411Z,78.71
2022-08-28T07:51:09.298Z,78.51
2022-08-28T07:58:11.238Z,77.80
2022-08-28T08:05:14.329Z,77.89
2022-08-28T08:12:16.272Z,77.14
2022-08-28T08:19:19.511Z,76.55
2022-08-28T08:26:22.874Z,76.89
2022-08-28T08:33:24.466Z,75.41
2022-08-28T08:40:26.212Z,75.00
2022-08-28T08:47:48.848Z,74.80
2022-08-28T08:55:06.037Z,75.21
2022-08-28T09:02:15.485Z,75.10
2022-08-28T09:09:30.870Z,75.27
2022-08-28T09:16:35.853Z,75.46
2022-08-28T09:23:37.467Z,76.07
2022-08-28T09:30:39.169Z,75.88
2022-08-28T09:37:41.590Z,75.64
2022-08-28T09:44:54.567Z,76.81
2022-08-28T09:51:59.420Z,76.19
2022-08-28T09:59:06.502Z,76.03
2022-08-28T10:06:25.126Z,75.83
2022-08-28T10:13:30.665Z,76.21
2022-08-28T10:21:13.723Z,74.89
2022-08-28T10:28:43.277Z,75.62
2022-08-28T10:36:02.611Z,75.76
2022-08-28T10:43:25.475Z,76.64
2022-08-28T10:50:29.419Z,77.19
2022-08-28T10:57:49.380Z,77.49
2022-08-28T11:04:53.332Z,77.75
2022-08-28T11:12:02.535Z,78.14
2022-08-28T11:19:25.637Z,78.16
2022-08-28T11:26:54.648Z,77.63
2022-08-28T11:33:58.908Z,77.61
2022-08-28T11:41:17.556Z,77.99
2022-08-28T11:48:25.646Z,78.42
2022-08-28T11:55:30.923Z,78.72
2022-08-28T12:02:39.097Z,77.83
2022-08-28T12:09:45.362Z,77.99
2022-08-28T12:16:58.764Z,78.15
2022-08-28T12:24:07.159Z,77.21
2022-08-28T12:31:42.814Z,77.29
2022-08-28T12:38:51.100Z,75.96
2022-08-28T12:45:55.484Z,76.55
2022-08-28T12:52:59.879Z,75.33
2022-08-28T13:00:08.151Z,74.16
2022-08-28T13:07:15.664Z,74.28
2022-08-28T13:14:41.896Z,73.42
2022-08-28T13:21:46.396Z,75.19
2022-08-28T13:28:48.015Z,76.26
2022-08-28T13:35:54.774Z,76.30
2022-08-28T13:43:03.126Z,75.47
2022-08-28T13:50:06.166Z,72.96
2022-08-28T13:57:07.850Z,64.50
2022-08-28T14:04:09.791Z,60.99
2022-08-28T14:11:12.771Z,59.38
2022-08-28T14:18:14.761Z,54.86
2022-08-28T14:25:16.478Z,52.02
2022-08-28T14:32:18.397Z,50.43
2022-08-28T14:39:20.084Z,49.57
2022-08-28T14:46:28.444Z,47.87
2022-08-28T14:53:30.220Z,48.78
2022-08-28T15:00:31.847Z,48.56
2022-08-28T15:07:33.530Z,48.96
2022-08-28T15:14:35.825Z,49.07
2022-08-28T15:21:38.330Z,47.70
2022-08-28T15:28:39.993Z,47.38
2022-08-28T15:35:41.598Z,45.99
2022-08-28T15:42:43.941Z,46.11
2022-08-28T15:49:48.746Z,45.65
2022-08-28T15:56:53.768Z,46.58
2022-08-28T16:03:55.923Z,46.69
2022-08-28T16:10:57.604Z,46.98
2022-08-28T16:17:59.238Z,47.23
2022-08-28T16:25:00.876Z,46.98
2022-08-28T16:32:02.834Z,47.50
2022-08-28T16:39:04.701Z,47.29
2022-08-28T16:46:14.217Z,48.18
2022-08-28T16:53:15.923Z,47.70
2022-08-28T17:00:27.069Z,47.12
2022-08-28T17:07:29.080Z,47.58
2022-08-28T17:14:30.706Z,48.01
2022-08-28T17:21:50.774Z,47.59
2022-08-28T17:28:52.466Z,48.03
2022-08-28T17:35:59.656Z,48.52
2022-08-28T17:43:02.786Z,48.81
2022-08-28T17:50:05.800Z,50.08
2022-08-28T17:57:07.761Z,51.09
2022-08-28T18:04:09.552Z,51.23
2022-08-28T18:11:13.413Z,51.49
2022-08-28T18:18:15.307Z,51.86
2022-08-28T18:25:35.280Z,51.63
2022-08-28T18:32:37.039Z,52.53
2022-08-28T18:39:39.200Z,52.92
2022-08-28T18:46:41.459Z,53.42
2022-08-28T18:53:43.606Z,53.64
2022-08-28T19:00:45.261Z,52.34
2022-08-28T19:07:47.341Z,52.40
2022-08-28T19:14:53.157Z,51.55
2022-08-28T19:21:54.771Z,51.55
2022-08-28T19:28:56.860Z,51.14
2022-08-28T19:35:58.449Z,51.02
2022-08-28T19:43:00.681Z,50.34
2022-08-28T19:50:02.597Z,50.74
2022-08-28T19:57:05.213Z,50.62
2022-08-28T20:04:07.747Z,50.60
2022-08-28T20:11:09.716Z,50.70
2022-08-28T20:18:12.354Z,51.35
2022-08-28T20:25:14.816Z,51.47
2022-08-28T20:32:16.997Z,52.36
2022-08-28T20:39:18.996Z,52.50
2022-08-28T20:46:20.694Z,52.81
2022-08-28T20:53:36.988Z,52.60
2022-08-28T21:00:40.036Z,52.76
2022-08-28T21:07:41.721Z,53.00
2022-08-28T21:14:44.161Z,53.27
2022-08-28T21:21:53.043Z,53.30
2022-08-28T21:28:54.884Z,52.85
2022-08-28T21:35:56.460Z,53.41
2022-08-28T21:42:58.119Z,52.85
2022-08-28T21:49:59.809Z,53.61
2022-08-28T21:57:01.426Z,54.12
2022-08-28T22:04:03.325Z,54.51
2022-08-28T22:11:04.962Z,54.68
2022-08-28T22:18:09.896Z,55.39
2022-08-28T22:25:11.506Z,56.13
2022-08-28T22:32:13.150Z,56.10
2022-08-28T22:39:14.783Z,56.45
2022-08-28T22:46:16.656Z,57.12
2022-08-28T22:53:18.392Z,56.56
2022-08-28T23:00:21.561Z,56.68
2022-08-28T23:07:23.187Z,56.96
2022-08-28T23:14:24.879Z,57.89
2022-08-28T23:21:29.022Z,58.07
2022-08-28T23:28:30.629Z,58.97
2022-08-28T23:35:32.209Z,59.18
2022-08-28T23:42:34.767Z,59.52
2022-08-28T23:49:42.626Z,59.45
2022-08-28T23:56:44.623Z,60.14
